Time;durP1;ratioP1;P1;durP2;ratioP2;P2;SDS_P1;SDS_P2;PMS_P1;PMS_P2;Temp;Humidity;BMP_temperature;BMP_pressure;BME280_temperature;BME280_humidity;BME280_pressure;Samples;Min_cycle;Max_cycle;Signal;HPM_P1;HPM_P2
2022/09/12 00:02:20;;;;;;;9.77;9.20;;;;;;;14.13;91.16;92660.19;5069579;28;20221;-71
2022/09/12 00:04:46;;;;;;;9.77;9.27;;;;;;;14.22;91.31;92651.28;5070056;28;20244;-71
2022/09/12 00:07:11;;;;;;;9.27;8.77;;;;;;;14.12;92.26;92640.25;5070628;28;20189;-72
2022/09/12 00:09:37;;;;;;;9.20;8.63;;;;;;;14.13;90.00;92657.56;5070950;28;20292;-72
2022/09/12 00:12:02;;;;;;;8.70;8.30;;;;;;;14.08;91.18;92650.59;5058697;28;20241;-71
2022/09/12 00:14:28;;;;;;;10.20;9.60;;;;;;;14.03;92.58;92645.44;5070337;28;20228;-71
2022/09/12 00:16:58;;;;;;;9.40;8.90;;;;;;;14.03;89.28;92674.31;5070418;28;20185;-72
2022/09/12 00:19:24;;;;;;;9.33;8.93;;;;;;;14.09;88.68;92681.00;5069705;28;20229;-72
2022/09/12 00:21:49;;;;;;;10.47;9.97;;;;;;;14.21;87.66;92675.22;5070454;28;20173;-71
2022/09/12 00:24:15;;;;;;;9.93;9.53;;;;;;;14.16;87.10;92677.97;5070025;28;20225;-71
2022/09/12 00:26:40;;;;;;;9.03;8.63;;;;;;;14.13;86.92;92678.56;5070501;28;20197;-71
2022/09/12 00:29:06;;;;;;;9.00;8.60;;;;;;;14.10;86.42;92685.16;5069776;28;20224;-72
2022/09/12 00:31:31;;;;;;;9.50;9.10;;;;;;;14.09;86.68;92683.63;5070217;28;20186;-71
2022/09/12 00:33:59;;;;;;;10.40;9.60;;;;;;;14.16;87.02;92678.72;5069599;28;20217;-71
2022/09/12 00:36:26;;;;;;;9.47;8.97;;;;;;;14.10;87.57;92674.66;5070258;28;20189;-72
2022/09/12 00:38:53;;;;;;;9.23;8.70;;;;;;;14.10;86.35;92684.41;5069760;28;20195;-71
2022/09/12 00:41:18;;;;;;;10.20;9.70;;;;;;;14.09;86.39;92686.25;5070341;28;20178;-72
2022/09/12 00:43:52;;;;;;;10.17;9.67;;;;;;;14.12;88.16;92667.28;5061609;28;20210;-71
2022/09/12 00:46:52;;;;;;;10.20;9.70;;;;;;;14.07;87.39;92667.38;5067726;28;20190;-71
2022/09/12 00:49:38;;;;;;;9.93;9.43;;;;;;;14.05;87.38;92677.44;5033810;28;20234;-71
2022/09/12 00:52:06;;;;;;;9.53;9.13;;;;;;;14.01;87.89;92671.22;5068645;28;20245;-71
2022/09/12 00:54:36;;;;;;;9.07;8.67;;;;;;;14.03;86.60;92671.69;5068791;28;20948;-71
2022/09/12 00:57:05;;;;;;;8.60;8.30;;;;;;;13.99;86.78;92657.59;5070083;28;20195;-71
2022/09/12 01:00:04;;;;;;;8.97;8.50;;;;;;;13.97;83.62;92653.72;5065079;28;20241;-72
2022/09/12 01:02:29;;;;;;;9.13;8.73;;;;;;;14.06;85.66;92662.44;5068436;28;20229;-71
2022/09/12 01:04:55;;;;;;;9.17;8.77;;;;;;;14.00;85.38;92659.16;5069209;28;20255;-72
2022/09/12 01:07:21;;;;;;;8.97;8.57;;;;;;;14.10;84.75;92652.91;5069741;28;20181;-71
2022/09/12 01:09:46;;;;;;;9.00;8.60;;;;;;;13.91;84.25;92654.91;5071213;28;20228;-72
2022/09/12 01:12:16;;;;;;;8.30;7.97;;;;;;;13.88;83.44;92653.66;5080459;28;20201;-72
2022/09/12 01:14:41;;;;;;;8.80;8.40;;;;;;;13.98;83.31;92657.91;5081771;28;20949;-72
2022/09/12 01:17:11;;;;;;;9.03;8.63;;;;;;;14.01;82.13;92647.59;5074063;28;20193;-69
2022/09/12 01:20:04;;;;;;;8.27;7.93;;;;;;;13.91;83.33;92645.22;5076130;28;20233;-72
2022/09/12 01:23:08;;;;;;;8.77;8.30;;;;;;;13.87;84.60;92646.84;5081795;28;20249;-72
2022/09/12 01:25:52;;;;;;;8.20;7.80;;;;;;;13.92;83.00;92657.25;5086858;28;20224;-72
2022/09/12 01:28:54;;;;;;;8.57;8.27;;;;;;;13.87;84.08;92659.19;5083261;28;20216;-72
2022/09/12 01:31:36;;;;;;;8.23;7.93;;;;;;;13.50;83.22;92607.81;5080168;28;20204;-72
2022/09/12 01:34:27;;;;;;;9.67;9.27;;;;;;;13.79;84.26;92652.81;5056500;28;20218;-73
2022/09/12 01:37:30;;;;;;;8.63;8.33;;;;;;;13.65;84.50;92631.06;5049383;28;20210;-73
2022/09/12 01:40:07;;;;;;;8.37;7.97;;;;;;;13.51;84.79;92651.31;5047124;28;20294;-73
2022/09/12 01:43:16;;;;;;;8.57;8.17;;;;;;;13.58;85.42;92656.97;5048914;28;20274;-73
2022/09/12 01:45:45;;;;;;;8.27;7.97;;;;;;;13.56;84.75;92658.31;5047108;28;20229;-73
2022/09/12 01:48:28;;;;;;;9.43;9.03;;;;;;;13.48;85.75;92649.28;5048314;28;20258;-73
2022/09/12 01:51:17;;;;;;;9.27;8.87;;;;;;;13.57;86.13;92655.38;5048569;28;20224;-73
2022/09/12 01:53:51;;;;;;;8.17;7.57;;;;;;;13.41;84.74;92635.03;5051733;28;20225;-73
2022/09/12 01:56:26;;;;;;;9.17;8.80;;;;;;;13.56;83.65;92648.59;5088307;28;20199;-73
2022/09/12 01:59:04;;;;;;;8.63;8.33;;;;;;;13.49;83.19;92637.75;5065961;28;20264;-73
2022/09/12 02:01:36;;;;;;;8.30;7.97;;;;;;;13.56;83.86;92639.94;5048967;28;20193;-73
2022/09/12 02:04:19;;;;;;;8.10;7.80;;;;;;;13.62;83.08;92638.78;5048122;28;20224;-73
2022/09/12 02:06:47;;;;;;;8.10;7.80;;;;;;;13.57;83.02;92641.50;5082574;28;20198;-73
2022/09/12 02:09:34;;;;;;;9.10;8.40;;;;;;;13.57;82.97;92652.00;5073537;28;20217;-73
2022/09/12 02:12:00;;;;;;;8.30;7.90;;;;;;;13.59;82.88;92649.84;5080275;28;20178;-73
2022/09/12 02:14:29;;;;;;;7.83;7.53;;;;;;;13.51;83.06;92640.84;5070373;28;20257;-73
2022/09/12 02:17:00;;;;;;;8.97;8.47;;;;;;;13.64;83.70;92644.50;5072972;28;20224;-73
2022/09/12 02:19:33;;;;;;;8.10;7.73;;;;;;;13.45;81.83;92636.75;5071983;28;20256;-73
2022/09/12 02:22:02;;;;;;;8.80;8.20;;;;;;;13.58;81.85;92650.91;5072870;28;20188;-73
2022/09/12 02:24:32;;;;;;;8.23;7.83;;;;;;;13.68;80.60;92651.47;5071995;28;20232;-73
2022/09/12 02:27:16;;;;;;;8.37;8.07;;;;;;;13.62;82.34;92636.16;5073000;28;20190;-73
2022/09/12 02:29:43;;;;;;;7.53;7.23;;;;;;;13.63;82.46;92648.97;5061130;28;20284;-73
2022/09/12 02:32:44;;;;;;;8.33;7.93;;;;;;;13.61;82.41;92661.59;5072535;28;20178;-73
2022/09/12 02:35:27;;;;;;;9.07;8.60;;;;;;;13.51;83.16;92653.94;5072023;28;20237;-72
2022/09/12 02:37:56;;;;;;;8.97;8.57;;;;;;;13.46;82.93;92653.28;5070913;28;20191;-72
2022/09/12 02:40:21;;;;;;;8.50;8.20;;;;;;;13.46;83.38;92656.69;5072191;28;20221;-72
2022/09/12 02:42:48;;;;;;;8.97;8.57;;;;;;;13.53;83.31;92654.44;5072224;28;20186;-71
2022/09/12 02:45:15;;;;;;;8.37;8.07;;;;;;;13.51;83.76;92646.06;5071888;28;20335;-72
2022/09/12 02:48:01;;;;;;;8.60;8.20;;;;;;;13.42;83.76;92639.19;5072523;28;20190;-72
2022/09/12 02:50:28;;;;;;;8.60;8.30;;;;;;;13.39;84.31;92648.44;5068569;28;20232;-72
2022/09/12 02:52:58;;;;;;;9.30;8.70;;;;;;;13.46;85.94;92658.53;5071868;28;20863;-72
2022/09/12 02:55:25;;;;;;;8.63;8.33;;;;;;;13.47;85.15;92644.34;5072272;28;20918;-72
2022/09/12 02:57:51;;;;;;;9.30;8.90;;;;;;;13.38;86.30;92636.41;5072110;28;20181;-71
2022/09/12 03:00:16;;;;;;;9.27;8.87;;;;;;;13.50;85.29;92638.50;5071245;28;20670;-72
2022/09/12 03:03:00;;;;;;;9.73;9.03;;;;;;;13.57;85.05;92649.38;5072030;28;20228;-72
2022/09/12 03:05:31;;;;;;;9.00;8.40;;;;;;;13.53;84.61;92651.03;5070886;28;20221;-71
2022/09/12 03:08:15;;;;;;;9.57;9.17;;;;;;;13.56;85.65;92663.56;5070423;28;20190;-72
2022/09/12 03:10:53;;;;;;;9.80;9.37;;;;;;;13.43;86.77;92665.13;5067173;28;20224;-73
2022/09/12 03:13:37;;;;;;;8.37;8.07;;;;;;;13.41;86.54;92666.50;5071584;28;20177;-73
2022/09/12 03:16:05;;;;;;;9.17;8.77;;;;;;;13.47;86.91;92671.34;5071332;28;20205;-72
2022/09/12 03:18:58;;;;;;;8.77;8.47;;;;;;;13.42;87.40;92668.03;5059568;28;20254;-73
2022/09/12 03:21:34;;;;;;;8.67;8.27;;;;;;;13.38;87.34;92674.97;5070405;28;20201;-73
2022/09/12 03:24:31;;;;;;;9.07;8.60;;;;;;;13.38;88.27;92678.38;5070932;28;20221;-72
2022/09/12 03:27:10;;;;;;;9.60;9.10;;;;;;;13.30;88.52;92670.41;5063037;28;20189;-72
2022/09/12 03:29:37;;;;;;;9.10;8.60;;;;;;;13.35;88.63;92665.84;5072745;28;20217;-72
2022/09/12 03:32:03;;;;;;;9.67;9.17;;;;;;;13.20;88.58;92650.41;5070126;28;20182;-72
2022/09/12 03:34:28;;;;;;;9.43;8.73;;;;;;;13.22;88.70;92648.25;5069845;28;20213;-72
2022/09/12 03:36:54;;;;;;;10.77;9.97;;;;;;;13.31;88.51;92654.38;5072868;28;20182;-71
2022/09/12 03:39:23;;;;;;;10.57;10.07;;;;;;;13.25;88.96;92652.91;5064778;28;20316;-72
2022/09/12 03:41:48;;;;;;;9.17;8.77;;;;;;;13.24;87.70;92645.34;5073259;28;20178;-72
2022/09/12 03:44:14;;;;;;;9.20;8.80;;;;;;;13.32;87.66;92657.78;5068463;28;20272;-72
2022/09/12 03:46:39;;;;;;;9.63;9.13;;;;;;;13.34;88.19;92661.66;5072795;28;20200;-72
2022/09/12 03:49:04;;;;;;;10.07;9.57;;;;;;;13.32;87.86;92653.31;5068470;28;20224;-72
2022/09/12 03:51:30;;;;;;;9.87;9.40;;;;;;;13.38;86.67;92662.63;5071117;28;20173;-71
2022/09/12 03:53:55;;;;;;;9.80;9.40;;;;;;;13.34;86.65;92661.66;5068160;28;20321;-72
2022/09/12 03:56:21;;;;;;;10.97;10.37;;;;;;;13.42;85.91;92655.72;5068965;28;20196;-73
2022/09/12 03:58:46;;;;;;;11.30;10.60;;;;;;;13.29;86.06;92640.75;5068997;28;20293;-72
2022/09/12 04:01:14;;;;;;;10.00;9.40;;;;;;;13.44;86.57;92663.28;5070104;28;20173;-72
2022/09/12 04:03:41;;;;;;;9.83;9.33;;;;;;;13.43;85.44;92665.13;5066043;28;20236;-74
2022/09/12 04:06:08;;;;;;;10.90;10.30;;;;;;;13.51;86.07;92671.56;5067503;28;20233;-77
2022/09/12 04:08:35;;;;;;;11.83;10.93;;;;;;;13.55;86.37;92670.66;5069287;28;20185;-72
2022/09/12 04:11:08;;;;;;;11.90;11.20;;;;;;;13.53;85.91;92667.56;5049858;28;20244;-73
2022/09/12 04:13:35;;;;;;;10.37;9.77;;;;;;;13.50;86.05;92669.97;5048841;28;20196;-72
2022/09/12 04:16:01;;;;;;;12.23;11.53;;;;;;;13.56;85.88;92671.41;5069807;28;20193;-73
2022/09/12 04:18:27;;;;;;;11.50;10.80;;;;;;;13.75;85.94;92680.72;5068395;28;20189;-70
2022/09/12 04:20:52;;;;;;;12.43;11.63;;;;;;;13.60;85.31;92669.78;5070326;28;20221;-74
2022/09/12 04:23:18;;;;;;;12.63;11.73;;;;;;;13.79;85.64;92673.03;5061884;28;20726;-73
2022/09/12 04:25:43;;;;;;;13.00;12.13;;;;;;;13.74;85.93;92671.28;5038856;28;20242;-73
2022/09/12 04:28:09;;;;;;;12.37;11.47;;;;;;;13.76;85.98;92677.00;5044551;28;20182;-77
2022/09/12 04:30:34;;;;;;;12.47;11.67;;;;;;;13.73;85.61;92667.13;5042940;28;20214;-75
2022/09/12 04:32:59;;;;;;;12.20;11.40;;;;;;;13.93;85.62;92684.28;5039924;28;20201;-75
2022/09/12 04:35:26;;;;;;;11.97;11.17;;;;;;;13.91;85.76;92676.69;5045524;28;20230;-72
2022/09/12 04:37:52;;;;;;;12.70;11.80;;;;;;;13.86;86.41;92689.16;5049586;28;20196;-73
2022/09/12 04:40:17;;;;;;;13.60;12.70;;;;;;;13.94;86.45;92683.19;5049460;28;20234;-73
2022/09/12 04:42:43;;;;;;;12.83;11.73;;;;;;;13.88;85.51;92677.25;5049651;28;20178;-73
2022/09/12 04:45:08;;;;;;;11.80;11.00;;;;;;;13.92;85.36;92673.00;5072364;28;20224;-73
2022/09/12 04:47:34;;;;;;;11.43;10.73;;;;;;;13.99;84.94;92669.97;5086737;28;20176;-73
2022/09/12 04:49:59;;;;;;;11.60;10.90;;;;;;;14.09;85.15;92681.00;5073791;28;20246;-73
2022/09/12 04:52:24;;;;;;;11.23;10.53;;;;;;;13.86;85.12;92653.19;5070069;28;20184;-73
2022/09/12 04:54:50;;;;;;;12.00;11.30;;;;;;;14.10;85.44;92687.03;5062956;28;20225;-73
2022/09/12 04:57:15;;;;;;;12.10;11.30;;;;;;;14.17;84.75;92700.50;5064296;28;20197;-73
2022/09/12 04:59:41;;;;;;;12.23;11.37;;;;;;;14.14;85.02;92691.41;5066827;28;20235;-73
2022/09/12 05:02:07;;;;;;;12.03;11.33;;;;;;;14.35;84.01;92687.25;5073476;28;20237;-73
2022/09/12 05:04:32;;;;;;;12.57;11.70;;;;;;;14.26;84.33;92683.00;5055496;28;20245;-73
2022/09/12 05:06:59;;;;;;;12.50;11.60;;;;;;;14.32;83.97;92671.28;5048964;28;20260;-73
2022/09/12 05:09:24;;;;;;;11.87;11.17;;;;;;;14.46;83.77;92674.63;5055344;28;20217;-73
2022/09/12 05:11:49;;;;;;;13.37;12.37;;;;;;;14.43;82.87;92673.38;5069728;28;20193;-73
2022/09/12 05:14:15;;;;;;;11.87;11.07;;;;;;;14.47;83.11;92673.56;5069462;28;20209;-72
2022/09/12 05:16:40;;;;;;;12.40;11.60;;;;;;;14.39;82.32;92672.44;5069555;28;20219;-74
2022/09/12 05:19:06;;;;;;;11.67;10.87;;;;;;;14.69;82.39;92688.53;5070605;28;20233;-73
2022/09/12 05:21:31;;;;;;;11.23;10.60;;;;;;;14.61;82.58;92682.16;5073314;28;20176;-73
2022/09/12 05:24:00;;;;;;;13.73;12.73;;;;;;;14.66;81.97;92681.25;5073374;28;20236;-73
2022/09/12 05:26:26;;;;;;;12.00;11.10;;;;;;;14.63;81.63;92689.72;5049142;28;20205;-73
2022/09/12 05:28:53;;;;;;;12.87;11.80;;;;;;;14.71;81.86;92694.28;5041975;28;20447;-72
2022/09/12 05:31:20;;;;;;;28.97;27.43;;;;;;;14.64;81.14;92686.03;5069307;28;20185;-72
2022/09/12 05:33:47;;;;;;;12.10;11.33;;;;;;;14.84;81.70;92698.66;5058083;28;20190;-73
2022/09/12 05:36:19;;;;;;;11.63;10.87;;;;;;;14.86;80.70;92696.50;5069531;28;20184;-74
2022/09/12 05:38:45;;;;;;;12.23;11.43;;;;;;;15.03;80.05;92697.38;5068530;28;20193;-72
2022/09/12 05:41:13;;;;;;;13.30;12.40;;;;;;;15.10;80.05;92696.91;5068978;28;20188;-74
2022/09/12 05:43:41;;;;;;;11.93;11.23;;;;;;;14.94;79.64;92688.66;5067641;28;20193;-73
2022/09/12 05:46:14;;;;;;;11.83;11.13;;;;;;;15.03;80.06;92699.22;5068802;28;20189;-74
2022/09/12 05:48:41;;;;;;;11.70;11.10;;;;;;;14.93;79.18;92692.34;5069069;28;20188;-74
2022/09/12 05:51:10;;;;;;;12.00;11.30;;;;;;;14.96;79.86;92701.50;5073252;28;20196;-73
2022/09/12 05:53:36;;;;;;;10.53;9.83;;;;;;;15.15;79.24;92684.41;5072371;28;20181;-73
2022/09/12 05:56:13;;;;;;;12.10;11.30;;;;;;;15.19;78.01;92674.06;5073920;28;20257;-73
2022/09/12 05:58:42;;;;;;;11.50;10.80;;;;;;;15.16;78.07;92690.47;5072764;28;20228;-73
2022/09/12 06:01:10;;;;;;;11.73;10.90;;;;;;;15.28;77.22;92685.38;5062768;28;20178;-74
2022/09/12 06:03:43;;;;;;;11.17;10.47;;;;;;;15.62;76.36;92683.66;5070712;28;20213;-73
2022/09/12 06:06:13;;;;;;;10.87;10.17;;;;;;;15.92;74.20;92687.25;5073120;28;20227;-73
2022/09/12 06:08:41;;;;;;;11.47;10.87;;;;;;;16.20;74.02;92675.34;5072278;28;20189;-73
2022/09/12 06:11:08;;;;;;;11.43;10.73;;;;;;;16.27;71.91;92673.00;5066798;28;20195;-74
2022/09/12 06:13:36;;;;;;;10.60;10.00;;;;;;;16.69;71.99;92679.31;5072636;28;20921;-73
2022/09/12 06:16:07;;;;;;;11.40;10.80;;;;;;;17.04;69.48;92672.88;5073126;28;20184;-74
2022/09/12 06:18:34;;;;;;;11.10;10.50;;;;;;;17.11;69.04;92681.06;5112906;28;20190;-73
2022/09/12 06:21:08;;;;;;;12.17;11.43;;;;;;;17.10;68.58;92677.69;5052467;28;20221;-73
2022/09/12 06:23:35;;;;;;;11.63;10.80;;;;;;;16.98;68.88;92682.06;5046956;28;20296;-71
2022/09/12 06:26:03;;;;;;;13.83;13.03;;;;;;;16.74;68.26;92672.03;5074479;28;20213;-71
2022/09/12 06:28:29;;;;;;;11.23;10.63;;;;;;;16.92;68.40;92683.28;5074243;28;20216;-71
2022/09/12 06:31:03;;;;;;;11.07;10.47;;;;;;;16.68;69.17;92698.88;5051699;28;20214;-72
2022/09/12 06:33:30;;;;;;;11.17;10.53;;;;;;;16.26;70.96;92697.03;5048174;28;20194;-71
2022/09/12 06:36:01;;;;;;;11.23;10.53;;;;;;;16.14;71.62;92695.00;5047654;28;20222;-72
2022/09/12 06:38:27;;;;;;;11.37;10.77;;;;;;;16.50;70.96;92698.13;5052241;28;20178;-74
2022/09/12 06:40:52;;;;;;;11.20;10.60;;;;;;;16.13;71.03;92704.00;5052312;28;20732;-73
2022/09/12 06:43:18;;;;;;;10.20;9.70;;;;;;;16.15;71.51;92708.97;5052595;28;20190;-73
2022/09/12 06:45:48;;;;;;;11.30;10.60;;;;;;;16.02;72.18;92713.28;5070797;28;20220;-72
2022/09/12 06:48:14;;;;;;;11.27;10.50;;;;;;;15.91;72.98;92701.50;5082583;28;20188;-73
2022/09/12 06:50:40;;;;;;;11.50;10.70;;;;;;;16.35;71.95;92711.75;5053233;28;20226;-72
2022/09/12 06:53:05;;;;;;;11.77;11.17;;;;;;;16.30;72.15;92709.25;5051429;28;20306;-72
2022/09/12 06:55:31;;;;;;;11.07;10.33;;;;;;;16.44;72.03;92714.38;5048454;28;20225;-73
2022/09/12 06:57:56;;;;;;;11.63;10.93;;;;;;;16.11;72.65;92674.53;5051677;28;20267;-72
2022/09/12 07:00:22;;;;;;;11.50;10.90;;;;;;;16.70;71.97;92710.66;5049505;28;20244;-72
2022/09/12 07:02:47;;;;;;;11.23;10.63;;;;;;;16.69;72.54;92727.56;5048931;28;20234;-72
2022/09/12 07:05:14;;;;;;;11.13;10.43;;;;;;;17.11;71.05;92729.34;5063213;28;20229;-71
2022/09/12 07:07:39;;;;;;;11.53;10.83;;;;;;;17.33;69.77;92737.03;5068632;28;20201;-71
2022/09/12 07:10:05;;;;;;;11.53;10.83;;;;;;;17.11;70.16;92731.97;5067981;28;20221;-71
2022/09/12 07:12:31;;;;;;;11.03;10.17;;;;;;;17.16;69.87;92734.44;5071255;28;20178;-71
2022/09/12 07:14:56;;;;;;;12.23;11.53;;;;;;;17.32;68.96;92742.63;5075465;28;21217;-72
2022/09/12 07:17:22;;;;;;;11.40;10.77;;;;;;;17.32;69.50;92745.25;5071304;28;20200;-72
2022/09/12 07:19:47;;;;;;;12.37;11.67;;;;;;;17.17;70.02;92737.84;5070558;28;20264;-72
2022/09/12 07:22:12;;;;;;;10.53;9.93;;;;;;;17.03;69.37;92703.75;5071074;28;20197;-72
2022/09/12 07:24:38;;;;;;;11.27;10.60;;;;;;;16.97;70.00;92710.28;5070621;28;20288;-72
2022/09/12 07:27:04;;;;;;;11.80;11.10;;;;;;;17.30;70.17;92737.66;5070739;28;20264;-72
2022/09/12 07:29:29;;;;;;;11.70;11.00;;;;;;;16.91;68.64;92743.19;5060642;28;20278;-72
2022/09/12 07:31:55;;;;;;;11.10;10.40;;;;;;;16.90;68.77;92743.50;5050193;28;20198;-72
2022/09/12 07:34:20;;;;;;;11.23;10.43;;;;;;;16.94;68.16;92729.38;5053634;28;20230;-72
2022/09/12 07:36:46;;;;;;;11.07;10.37;;;;;;;17.15;68.51;92740.78;5050098;28;20170;-72
2022/09/12 07:39:11;;;;;;;12.30;11.40;;;;;;;16.96;68.39;92743.03;5050216;28;20226;-73
2022/09/12 07:41:36;;;;;;;13.00;12.00;;;;;;;17.01;68.88;92744.72;5050522;28;20270;-72
2022/09/12 07:44:05;;;;;;;11.17;10.57;;;;;;;17.16;68.00;92734.44;5054502;28;20229;-72
2022/09/12 07:46:32;;;;;;;12.10;11.40;;;;;;;17.13;68.33;92732.44;5069738;28;20185;-72
2022/09/12 07:48:59;;;;;;;12.33;11.63;;;;;;;17.51;68.73;92740.38;5069715;28;20213;-72
2022/09/12 07:51:26;;;;;;;12.17;11.47;;;;;;;17.53;67.76;92736.34;5069595;28;20178;-73
2022/09/12 07:53:52;;;;;;;12.13;11.33;;;;;;;17.37;66.63;92740.56;5069576;28;20185;-72
2022/09/12 07:56:20;;;;;;;11.57;10.87;;;;;;;17.34;65.53;92738.56;5070356;28;20188;-74
2022/09/12 07:58:46;;;;;;;12.17;11.37;;;;;;;17.10;65.10;92734.94;5069475;28;20208;-73
2022/09/12 08:01:24;;;;;;;11.47;10.70;;;;;;;17.52;65.92;92726.91;5069344;28;20185;-73
2022/09/12 08:03:54;;;;;;;11.57;10.87;;;;;;;17.92;64.63;92743.16;5069340;28;20311;-72
2022/09/12 08:06:23;;;;;;;11.20;10.57;;;;;;;17.96;62.99;92738.00;5068305;28;20202;-72
2022/09/12 08:08:49;;;;;;;11.30;10.70;;;;;;;18.38;61.82;92740.38;5069241;28;20292;-72
2022/09/12 08:11:16;;;;;;;11.10;10.40;;;;;;;17.74;63.77;92749.63;5068900;28;20194;-73
2022/09/12 08:13:43;;;;;;;11.43;10.60;;;;;;;18.59;62.94;92729.78;5067913;28;20193;-73
2022/09/12 08:16:12;;;;;;;10.70;10.00;;;;;;;18.71;60.99;92727.19;5069414;28;20183;-70
2022/09/12 08:18:38;;;;;;;10.60;10.07;;;;;;;18.46;60.93;92752.75;5068736;28;20190;-72
2022/09/12 08:21:15;;;;;;;10.37;9.77;;;;;;;18.14;62.72;92745.50;5068232;28;20184;-71
2022/09/12 08:23:42;;;;;;;10.80;10.20;;;;;;;17.99;63.37;92747.94;5057439;28;20207;-71
2022/09/12 08:26:09;;;;;;;10.97;10.37;;;;;;;18.16;63.10;92739.91;5069816;28;20194;-70
2022/09/12 08:28:35;;;;;;;10.27;9.67;;;;;;;18.06;62.97;92748.97;5067553;28;20193;-72
2022/09/12 08:31:10;;;;;;;10.30;9.80;;;;;;;17.90;63.52;92745.31;5046388;28;20183;-70
2022/09/12 08:33:36;;;;;;;9.80;9.20;;;;;;;17.99;62.00;92745.28;5039406;28;20209;-70
2022/09/12 08:36:20;;;;;;;9.87;9.33;;;;;;;17.92;62.18;92729.16;5068363;28;20251;-70
2022/09/12 08:38:47;;;;;;;10.33;9.83;;;;;;;18.09;61.26;92744.91;5068030;28;20189;-70
2022/09/12 08:41:42;;;;;;;10.80;10.20;;;;;;;17.84;63.66;92743.22;5068957;28;20186;-71
2022/09/12 08:44:36;;;;;;;10.33;9.83;;;;;;;18.71;62.74;92732.47;5067216;28;20229;-71
2022/09/12 08:47:20;;;;;;;11.10;10.20;;;;;;;19.05;61.31;92721.59;5067707;28;20229;-70
2022/09/12 08:50:11;;;;;;;10.23;9.63;;;;;;;18.95;60.27;92737.88;5060692;28;20233;-70
2022/09/12 08:52:42;;;;;;;10.00;9.47;;;;;;;18.19;61.21;92739.25;5068841;28;20529;-70
2022/09/12 08:55:48;;;;;;;9.93;9.43;;;;;;;18.41;61.48;92736.34;5068104;28;20226;-71
2022/09/12 08:58:19;;;;;;;10.03;9.53;;;;;;;18.10;62.22;92733.25;5068755;28;20206;-70
2022/09/12 09:01:11;;;;;;;9.87;9.37;;;;;;;18.03;62.32;92733.75;5066943;28;20327;-72
2022/09/12 09:04:06;;;;;;;9.57;9.07;;;;;;;18.73;62.15;92735.59;5079853;28;20237;-68
2022/09/12 09:06:59;;;;;;;10.43;9.83;;;;;;;18.43;61.08;92736.75;5058295;28;20321;-71
2022/09/12 09:09:41;;;;;;;10.27;9.67;;;;;;;18.69;62.01;92734.69;5068225;28;20274;-71
2022/09/12 09:12:13;;;;;;;11.23;10.60;;;;;;;18.47;61.76;92737.69;5055736;28;20221;-72
2022/09/12 09:15:01;;;;;;;10.83;10.20;;;;;;;18.52;61.06;92726.91;5075776;28;20259;-71
2022/09/12 09:17:30;;;;;;;10.83;10.23;;;;;;;18.74;60.88;92726.56;5076496;28;20190;-71
2022/09/12 09:20:06;;;;;;;10.80;10.20;;;;;;;18.83;58.68;92716.69;5058563;28;20313;-72
2022/09/12 09:22:40;;;;;;;10.10;9.60;;;;;;;19.46;57.78;92705.56;5048791;28;20184;-72
2022/09/12 09:25:15;;;;;;;10.23;9.63;;;;;;;19.50;58.22;92711.00;5060428;28;20223;-72
2022/09/12 09:28:06;;;;;;;13.97;12.97;;;;;;;19.32;58.84;92718.34;5067763;28;20260;-74
2022/09/12 09:30:34;;;;;;;10.27;9.63;;;;;;;18.89;59.13;92723.31;5067962;28;20262;-74
2022/09/12 09:33:03;;;;;;;13.87;9.50;;;;;;;18.91;59.19;92715.81;5068565;28;20179;-77
2022/09/12 09:35:38;;;;;;;10.30;9.70;;;;;;;18.56;58.72;92725.16;5056879;28;20225;-75
2022/09/12 09:38:22;;;;;;;10.53;9.93;;;;;;;18.46;58.75;92712.34;5061318;28;20179;-74
2022/09/12 09:41:19;;;;;;;10.90;10.20;;;;;;;18.30;60.12;92711.34;5066276;28;20218;-74
2022/09/12 09:43:44;;;;;;;10.77;10.17;;;;;;;18.59;59.52;92711.28;5064497;28;20189;-73
2022/09/12 09:46:11;;;;;;;11.63;10.93;;;;;;;18.43;61.13;92711.09;5068322;28;20225;-74
2022/09/12 09:48:49;;;;;;;10.27;9.57;;;;;;;18.29;61.33;92699.25;5066202;28;20188;-75
2022/09/12 09:51:23;;;;;;;11.33;10.70;;;;;;;18.62;60.18;92703.47;5063773;28;21093;-75
2022/09/12 09:53:56;;;;;;;11.10;10.40;;;;;;;18.59;60.53;92708.63;5065262;28;20199;-74
2022/09/12 09:56:22;;;;;;;10.97;10.37;;;;;;;18.82;59.18;92707.97;5067832;28;20214;-74
2022/09/12 09:58:47;;;;;;;10.67;9.97;;;;;;;18.38;59.11;92705.25;5065658;28;20222;-75
2022/09/12 10:01:16;;;;;;;11.13;10.50;;;;;;;18.08;59.96;92699.22;5068201;28;20183;-74
2022/09/12 10:03:54;;;;;;;10.17;9.57;;;;;;;18.68;60.31;92696.09;5067715;28;20248;-74
2022/09/12 10:06:22;;;;;;;10.60;9.90;;;;;;;18.75;58.67;92701.66;5066525;28;20185;-75
2022/09/12 10:08:49;;;;;;;10.50;9.90;;;;;;;19.29;58.87;92708.44;5067225;28;20180;-75
2022/09/12 10:11:14;;;;;;;10.40;9.70;;;;;;;18.93;58.32;92697.72;5068077;28;20201;-74
2022/09/12 10:13:52;;;;;;;11.40;10.70;;;;;;;18.92;59.06;92696.19;5067688;28;20184;-76
2022/09/12 10:16:21;;;;;;;10.70;10.07;;;;;;;18.78;58.54;92696.50;5101027;28;20205;-75
2022/09/12 10:18:49;;;;;;;11.33;10.60;;;;;;;18.72;59.10;92681.91;5066529;28;20197;-74
2022/09/12 10:21:38;;;;;;;11.40;10.70;;;;;;;18.96;59.09;92689.91;5067969;28;20204;-75
2022/09/12 10:24:13;;;;;;;11.80;11.00;;;;;;;18.76;57.21;92692.59;5054641;28;20227;-75
2022/09/12 10:26:39;;;;;;;10.70;10.10;;;;;;;18.76;57.56;92661.66;5048481;28;20211;-76
2022/09/12 10:29:20;;;;;;;10.27;9.77;;;;;;;18.60;57.66;92684.50;5046675;28;20222;-75
2022/09/12 10:31:52;;;;;;;10.30;9.73;;;;;;;18.67;58.31;92695.34;5042077;28;20220;-75
2022/09/12 10:34:24;;;;;;;10.07;9.57;;;;;;;18.98;58.58;92689.59;5048665;28;20265;-74
2022/09/12 10:36:53;;;;;;;11.03;10.33;;;;;;;19.49;57.34;92688.25;5070180;28;20247;-75
2022/09/12 10:39:19;;;;;;;10.97;10.37;;;;;;;19.45;56.89;92688.16;5067526;28;20226;-75
2022/09/12 10:41:45;;;;;;;13.07;10.83;;;;;;;19.72;56.19;92698.06;5071634;28;20180;-75
2022/09/12 10:44:17;;;;;;;10.20;9.37;;;;;;;19.58;55.79;92687.03;5068027;28;20240;-75
2022/09/12 10:46:43;;;;;;;10.90;10.20;;;;;;;19.49;57.35;92699.63;5070363;28;20195;-73
2022/09/12 10:49:30;;;;;;;10.43;9.83;;;;;;;19.07;58.12;92680.47;5067977;28;20230;-75
2022/09/12 10:51:59;;;;;;;10.60;9.90;;;;;;;19.11;58.06;92641.63;5067452;28;20191;-74
2022/09/12 10:54:27;;;;;;;11.23;10.57;;;;;;;19.49;56.80;92686.38;5068024;28;20243;-75
2022/09/12 10:57:29;;;;;;;10.43;9.83;;;;;;;19.04;57.64;92690.94;5070867;28;20183;-74
2022/09/12 11:00:14;;;;;;;12.67;9.73;;;;;;;19.00;56.72;92687.41;5063658;28;20266;-74
2022/09/12 11:03:17;;;;;;;10.13;9.53;;;;;;;19.15;55.90;92690.19;5068315;28;20250;-74
2022/09/12 11:05:59;;;;;;;11.17;10.47;;;;;;;19.21;55.80;92687.34;5068231;28;21161;-74
2022/09/12 11:08:54;;;;;;;10.23;9.63;;;;;;;19.08;55.77;92689.94;5070288;28;20191;-74
2022/09/12 11:11:50;;;;;;;10.57;9.87;;;;;;;19.07;55.48;92690.25;5065573;28;20230;-74
2022/09/12 11:14:20;;;;;;;11.17;10.53;;;;;;;19.22;55.47;92694.16;5070781;28;20243;-74
2022/09/12 11:17:15;;;;;;;10.60;10.00;;;;;;;19.59;55.80;92691.25;5067248;28;20199;-73
2022/09/12 11:20:13;;;;;;;10.40;9.60;;;;;;;19.57;54.29;92688.16;5063966;28;20234;-74
2022/09/12 11:22:59;;;;;;;11.83;10.93;;;;;;;19.64;54.04;92680.44;5067312;28;20251;-75
2022/09/12 11:25:35;;;;;;;11.50;10.80;;;;;;;19.42;55.52;92670.28;5070637;28;20230;-74
2022/09/12 11:28:24;;;;;;;10.83;10.13;;;;;;;19.41;54.27;92675.91;5058260;28;20207;-75
2022/09/12 11:31:27;;;;;;;11.30;10.60;;;;;;;19.78;54.27;92685.38;5069810;28;20231;-74
2022/09/12 11:33:55;;;;;;;11.37;10.67;;;;;;;19.61;53.47;92685.63;5067246;28;20239;-74
2022/09/12 11:36:40;;;;;;;10.57;9.97;;;;;;;19.30;55.36;92683.50;5050422;28;20195;-74
2022/09/12 11:39:13;;;;;;;10.70;10.00;;;;;;;18.72;57.17;92670.56;5054512;28;20280;-74
2022/09/12 11:42:01;;;;;;;11.90;10.70;;;;;;;19.07;58.61;92677.03;5069321;28;20202;-74
2022/09/12 11:44:40;;;;;;;11.27;10.57;;;;;;;19.01;59.28;92681.00;5068166;28;20232;-74
2022/09/12 11:47:10;;;;;;;11.83;11.10;;;;;;;18.63;59.67;92688.41;5066489;28;20247;-73
2022/09/12 11:49:40;;;;;;;11.40;10.50;;;;;;;18.34;61.28;92688.44;5062676;28;20596;-75